createdAt,value
2018-01-02T00:00:07.047Z,41.07
2018-01-02T00:02:33.488Z,38.23
2018-01-02T00:04:59.899Z,39.00
2018-01-02T00:07:26.375Z,37.57
2018-01-02T00:09:52.847Z,36.87
2018-01-02T00:12:19.223Z,37.03
2018-01-02T00:14:45.602Z,34.53
2018-01-02T00:17:11.936Z,32.27
2018-01-02T00:19:38.325Z,32.77
2018-01-02T00:22:04.791Z,32.50
2018-01-02T00:24:31.227Z,32.40
2018-01-02T00:26:57.604Z,32.33
2018-01-02T00:29:24.107Z,32.90
2018-01-02T00:31:50.531Z,33.57
2018-01-02T00:34:16.907Z,34.10
2018-01-02T00:36:43.376Z,35.30
2018-01-02T00:39:09.812Z,34.70
2018-01-02T00:41:36.288Z,35.23
2018-01-02T00:44:02.731Z,35.83
2018-01-02T00:46:29.103Z,33.67
2018-01-02T00:48:55.467Z,34.97
2018-01-02T00:51:21.945Z,33.50
2018-01-02T00:53:48.367Z,30.40
2018-01-02T00:56:14.784Z,30.93
2018-01-02T00:58:41.320Z,31.80
2018-01-02T01:01:07.651Z,29.63
2018-01-02T01:03:34.087Z,30.97
2018-01-02T01:06:00.518Z,29.37
2018-01-02T01:08:26.960Z,29.47
2018-01-02T01:10:53.323Z,29.03
2018-01-02T01:13:19.817Z,28.93
2018-01-02T01:15:46.183Z,28.20
2018-01-02T01:18:12.654Z,28.43
2018-01-02T01:20:39.084Z,26.90
2018-01-02T01:23:05.551Z,26.20
2018-01-02T01:25:31.919Z,25.23
2018-01-02T01:27:58.370Z,26.57
2018-01-02T01:30:24.838Z,27.97
2018-01-02T01:32:51.198Z,27.47
2018-01-02T01:35:17.623Z,26.67
2018-01-02T01:37:44.002Z,27.63
2018-01-02T01:40:10.358Z,27.97
2018-01-02T01:42:36.799Z,27.03
2018-01-02T01:45:03.221Z,29.60
2018-01-02T01:47:29.581Z,29.57
2018-01-02T01:49:56.027Z,30.17
2018-01-02T01:52:22.445Z,31.67
2018-01-02T01:54:48.955Z,29.57
2018-01-02T01:57:15.395Z,30.30
2018-01-02T01:59:41.751Z,31.13
2018-01-02T02:02:08.127Z,30.20
2018-01-02T02:04:34.554Z,29.50
2018-01-02T02:07:00.979Z,27.97
2018-01-02T02:09:27.374Z,27.30
2018-01-02T02:11:53.892Z,26.73
2018-01-02T02:14:20.299Z,27.17
2018-01-02T02:16:46.702Z,26.40
2018-01-02T02:19:13.188Z,28.00
2018-01-02T02:21:39.555Z,28.30
2018-01-02T02:24:05.972Z,28.13
2018-01-02T02:26:32.515Z,28.60
2018-01-02T02:28:58.872Z,27.67
2018-01-02T02:31:25.311Z,27.17
2018-01-02T02:33:51.684Z,28.27
2018-01-02T02:36:18.139Z,29.07
2018-01-02T02:38:44.528Z,29.20
2018-01-02T02:41:11.005Z,32.83
2018-01-02T02:43:37.388Z,35.00
2018-01-02T02:46:03.803Z,33.93
2018-01-02T02:48:30.269Z,35.07
2018-01-02T02:50:56.643Z,37.40
2018-01-02T02:53:23.073Z,38.27
2018-01-02T02:55:49.478Z,39.63
2018-01-02T02:58:15.886Z,42.93
2018-01-02T03:00:42.352Z,42.57
2018-01-02T03:03:08.811Z,43.50
2018-01-02T03:05:35.192Z,41.37
2018-01-02T03:08:01.583Z,46.03
2018-01-02T03:10:27.989Z,46.43
2018-01-02T03:12:54.414Z,46.10
2018-01-02T03:15:20.791Z,47.37
2018-01-02T03:17:47.276Z,48.80
2018-01-02T03:20:13.672Z,49.40
2018-01-02T03:22:40.033Z,47.70
2018-01-02T03:25:06.447Z,49.67
2018-01-02T03:27:32.835Z,48.27
2018-01-02T03:29:59.250Z,50.07
2018-01-02T03:32:25.683Z,50.57
2018-01-02T03:34:52.135Z,50.17
2018-01-02T03:37:18.495Z,52.30
2018-01-02T03:39:44.931Z,54.70
2018-01-02T03:42:11.303Z,52.87
2018-01-02T03:44:37.691Z,53.17
2018-01-02T03:47:04.192Z,54.47
2018-01-02T03:49:30.567Z,57.60
2018-01-02T03:51:57.091Z,56.10
2018-01-02T03:54:23.511Z,58.20
2018-01-02T03:56:49.945Z,61.40
2018-01-02T03:59:16.357Z,57.37
2018-01-02T04:01:42.799Z,59.27
2018-01-02T04:04:09.179Z,58.17
2018-01-02T04:06:35.557Z,57.23
2018-01-02T04:09:02.018Z,57.53
2018-01-02T04:11:28.499Z,60.50
2018-01-02T04:13:54.915Z,58.53
2018-01-02T04:16:21.326Z,58.27
2018-01-02T04:18:47.747Z,57.90
2018-01-02T04:21:14.131Z,54.80
2018-01-02T04:23:40.563Z,57.13
2018-01-02T04:26:06.964Z,51.10
2018-01-02T04:28:33.330Z,52.77
2018-01-02T04:30:59.846Z,51.90
2018-01-02T04:33:26.238Z,50.00
2018-01-02T04:35:52.626Z,49.50
2018-01-02T04:38:19.036Z,48.33
2018-01-02T04:40:45.520Z,46.83
2018-01-02T04:43:12.134Z,47.80
2018-01-02T04:45:38.542Z,45.43
2018-01-02T04:48:04.901Z,43.57
2018-01-02T04:50:31.394Z,44.27
2018-01-02T04:52:57.807Z,43.80
2018-01-02T04:55:24.182Z,43.83
2018-01-02T04:57:50.572Z,42.80
2018-01-02T05:00:17.000Z,43.53
2018-01-02T05:02:43.455Z,41.43
2018-01-02T05:05:09.904Z,39.23
2018-01-02T05:07:36.295Z,40.03
2018-01-02T05:10:02.696Z,39.87
2018-01-02T05:12:29.192Z,40.63
2018-01-02T05:14:55.680Z,40.70
2018-01-02T05:17:22.121Z,41.60
2018-01-02T05:19:48.527Z,42.87
2018-01-02T05:22:14.911Z,42.23
2018-01-02T05:24:41.289Z,42.77
2018-01-02T05:27:07.752Z,43.53
2018-01-02T05:29:34.148Z,41.37
2018-01-02T05:32:00.588Z,40.97
2018-01-02T05:34:26.987Z,40.50
2018-01-02T05:36:53.366Z,40.40
2018-01-02T05:39:19.822Z,40.93
2018-01-02T05:41:46.179Z,40.60
2018-01-02T05:44:12.567Z,39.50
2018-01-02T05:46:39.024Z,39.00
2018-01-02T05:49:05.399Z,38.33
2018-01-02T05:51:31.858Z,36.03
2018-01-02T05:53:58.213Z,36.87
2018-01-02T05:56:24.570Z,37.10
2018-01-02T05:58:51.027Z,38.47
2018-01-02T06:01:17.442Z,39.67
2018-01-02T06:03:43.860Z,39.83
2018-01-02T06:06:10.319Z,43.83
2018-01-02T06:08:36.855Z,48.60
2018-01-02T06:11:03.227Z,46.73
2018-01-02T06:13:29.713Z,46.40
2018-01-02T06:15:56.179Z,44.87
2018-01-02T06:18:22.603Z,45.40
2018-01-02T06:20:49.017Z,47.27
2018-01-02T06:23:15.837Z,47.50
2018-01-02T06:25:42.335Z,47.67
2018-01-02T06:28:08.891Z,46.03
2018-01-02T06:30:35.351Z,50.60
2018-01-02T06:33:01.738Z,56.40
2018-01-02T06:35:28.193Z,61.53
2018-01-02T06:37:54.555Z,59.33
2018-01-02T06:40:21.031Z,59.53
2018-01-02T06:42:47.447Z,59.67
2018-01-02T06:45:13.903Z,56.27
2018-01-02T06:47:40.258Z,57.63
2018-01-02T06:50:06.711Z,56.93
2018-01-02T06:52:33.131Z,57.07
2018-01-02T06:54:59.504Z,56.97
2018-01-02T06:57:25.900Z,54.07
2018-01-02T06:59:52.269Z,57.37
2018-01-02T07:02:18.782Z,59.87
2018-01-02T07:04:45.215Z,62.20
2018-01-02T07:07:11.599Z,79.25
2018-01-02T07:09:37.971Z,73.10
2018-01-02T07:12:04.471Z,73.97
2018-01-02T07:14:30.870Z,74.07
2018-01-02T07:16:57.332Z,77.03
2018-01-02T07:19:23.787Z,76.53
2018-01-02T07:21:50.143Z,72.03
2018-01-02T07:24:16.516Z,72.97
2018-01-02T07:26:42.990Z,71.77
2018-01-02T07:29:09.352Z,67.40
2018-01-02T07:31:35.762Z,71.97
2018-01-02T07:34:02.464Z,74.80
2018-01-02T07:36:29.312Z,81.33
2018-01-02T07:38:55.996Z,87.47
2018-01-02T07:41:22.485Z,82.20
2018-01-02T07:43:48.934Z,84.07
2018-01-02T07:46:15.680Z,82.43
2018-01-02T07:48:42.195Z,71.20
2018-01-02T07:51:08.577Z,64.20
2018-01-02T07:53:34.980Z,60.50
2018-01-02T07:56:01.367Z,65.57
2018-01-02T07:58:27.798Z,64.13
2018-01-02T08:00:54.723Z,60.27
2018-01-02T08:03:21.620Z,59.20
2018-01-02T08:05:48.238Z,62.77
2018-01-02T08:08:14.726Z,59.27
2018-01-02T08:10:41.184Z,60.53
2018-01-02T08:13:07.816Z,60.30
2018-01-02T08:15:34.210Z,58.20
2018-01-02T08:18:01.010Z,58.33
2018-01-02T08:20:27.460Z,55.83
2018-01-02T08:22:53.839Z,50.00
2018-01-02T08:25:22.376Z,36.03
2018-01-02T08:27:48.863Z,34.53
2018-01-02T08:30:15.372Z,34.77
2018-01-02T08:32:41.967Z,36.63
2018-01-02T08:35:08.451Z,37.43
2018-01-02T08:37:34.875Z,36.40
2018-01-02T08:40:01.298Z,36.37
2018-01-02T08:42:27.727Z,36.37
2018-01-02T08:44:54.149Z,36.80
2018-01-02T08:47:20.581Z,36.43
2018-01-02T08:49:47.377Z,33.50
2018-01-02T08:52:13.816Z,33.87
2018-01-02T08:54:40.248Z,34.37
2018-01-02T08:57:06.631Z,33.83
2018-01-02T08:59:33.135Z,31.00
2018-01-02T09:01:59.618Z,30.47
2018-01-02T09:04:26.051Z,27.23
2018-01-02T09:06:52.640Z,26.87
2018-01-02T09:09:19.528Z,25.83
2018-01-02T09:11:46.320Z,23.83
2018-01-02T09:14:12.715Z,25.27
2018-01-02T09:16:39.146Z,24.37
2018-01-02T09:19:05.623Z,27.97
2018-01-02T09:21:32.075Z,27.17
2018-01-02T09:23:58.557Z,28.00
2018-01-02T09:26:25.170Z,27.17
2018-01-02T09:28:51.835Z,25.03
2018-01-02T09:31:18.253Z,26.60
2018-01-02T09:33:44.688Z,25.33
2018-01-02T09:36:11.135Z,28.37
2018-01-02T09:38:37.701Z,25.87
2018-01-02T09:41:04.239Z,26.00
2018-01-02T09:43:30.753Z,27.00
2018-01-02T09:45:57.139Z,26.03
2018-01-02T09:48:23.477Z,26.03
2018-01-02T09:50:49.996Z,29.03
2018-01-02T09:53:16.410Z,31.50
2018-01-02T09:55:42.974Z,31.07
2018-01-02T09:58:09.428Z,32.77
2018-01-02T10:00:35.977Z,31.47
2018-01-02T10:03:02.372Z,31.53
2018-01-02T10:05:28.717Z,34.37
2018-01-02T10:07:55.300Z,34.87
2018-01-02T10:10:21.740Z,35.47
2018-01-02T10:12:48.092Z,37.10
2018-01-02T10:15:14.772Z,38.87
2018-01-02T10:17:41.308Z,43.90
2018-01-02T10:20:07.656Z,43.83
2018-01-02T10:22:34.069Z,45.37
2018-01-02T10:25:01.019Z,48.13
2018-01-02T10:27:27.562Z,47.93
2018-01-02T10:29:54.155Z,47.67
2018-01-02T10:32:20.591Z,46.97
2018-01-02T10:34:47.181Z,43.33
2018-01-02T10:37:13.547Z,36.40
2018-01-02T10:39:39.879Z,38.47
2018-01-02T10:42:06.219Z,35.97
2018-01-02T10:44:32.624Z,35.30
2018-01-02T10:46:59.095Z,35.70
2018-01-02T10:49:25.540Z,36.90
2018-01-02T10:51:52.029Z,31.10
2018-01-02T10:54:18.431Z,31.50
2018-01-02T10:56:44.935Z,31.27
2018-01-02T10:59:11.364Z,31.17
2018-01-02T11:01:37.905Z,29.53
2018-01-02T11:04:04.368Z,31.80
2018-01-02T11:06:30.808Z,33.37
2018-01-02T11:08:57.267Z,33.53
2018-01-02T11:11:29.857Z,33.70
2018-01-02T11:13:56.340Z,34.43
2018-01-02T11:16:22.835Z,32.53
2018-01-02T11:18:49.204Z,32.27
2018-01-02T11:21:16.374Z,36.10
2018-01-02T11:23:42.826Z,34.73
2018-01-02T11:26:09.426Z,35.17
2018-01-02T11:28:36.145Z,30.43
2018-01-02T11:31:02.631Z,32.17
2018-01-02T11:33:29.048Z,33.20
2018-01-02T11:35:55.471Z,32.20
2018-01-02T11:38:21.873Z,29.57
2018-01-02T11:40:48.229Z,29.47
2018-01-02T11:43:14.801Z,32.73
2018-01-02T11:45:41.223Z,33.43
2018-01-02T11:48:07.688Z,39.47
2018-01-02T11:50:34.113Z,36.50
2018-01-02T11:53:00.870Z,37.93
2018-01-02T11:55:27.392Z,34.63
2018-01-02T11:57:53.926Z,31.77
2018-01-02T12:00:20.478Z,42.93
2018-01-02T12:02:46.888Z,44.73
2018-01-02T12:05:13.371Z,47.80
2018-01-02T12:07:39.781Z,47.40
2018-01-02T12:10:06.155Z,47.93
2018-01-02T12:12:32.564Z,41.03
2018-01-02T12:14:58.939Z,46.77
2018-01-02T12:17:25.432Z,45.40
2018-01-02T12:19:51.991Z,45.57
2018-01-02T12:22:18.555Z,37.63
2018-01-02T12:24:45.224Z,44.97
2018-01-02T12:27:11.962Z,38.63
2018-01-02T12:29:38.583Z,34.37
2018-01-02T12:32:05.198Z,32.60
2018-01-02T12:34:31.790Z,41.00
2018-01-02T12:36:58.346Z,34.00
2018-01-02T12:39:24.819Z,38.13
2018-01-02T12:41:51.270Z,37.13
2018-01-02T12:44:17.735Z,33.57
2018-01-02T12:46:44.111Z,31.87
2018-01-02T12:49:10.487Z,30.17
2018-01-02T12:51:36.961Z,30.67
2018-01-02T12:54:03.460Z,31.10
2018-01-02T12:56:30.004Z,34.30
2018-01-02T12:58:56.487Z,34.47
2018-01-02T13:01:22.911Z,35.70
2018-01-02T13:03:49.459Z,31.47
2018-01-02T13:06:15.955Z,29.37
2018-01-02T13:08:42.416Z,29.93
2018-01-02T13:11:08.907Z,61.70
2018-01-02T13:13:35.463Z,60.73
2018-01-02T13:16:02.002Z,49.47
2018-01-02T13:18:28.496Z,36.73
2018-01-02T13:20:54.889Z,52.63
2018-01-02T13:23:21.276Z,39.37
2018-01-02T13:25:47.713Z,44.97
2018-01-02T13:28:14.105Z,45.73
2018-01-02T13:30:40.619Z,41.57
2018-01-02T13:33:07.040Z,44.10
2018-01-02T13:35:33.422Z,40.70
2018-01-02T13:37:59.960Z,38.03
2018-01-02T13:40:26.543Z,33.00
2018-01-02T13:42:52.920Z,31.97
2018-01-02T13:45:19.420Z,35.97
2018-01-02T13:47:46.252Z,39.73
2018-01-02T13:50:12.739Z,34.83
2018-01-02T13:52:39.173Z,31.43
2018-01-02T13:55:05.599Z,35.50
2018-01-02T13:57:32.059Z,36.30
2018-01-02T13:59:58.664Z,34.53
2018-01-02T14:02:25.088Z,44.70
2018-01-02T14:04:51.539Z,41.53
2018-01-02T14:07:18.126Z,41.67
2018-01-02T14:09:44.807Z,47.73
2018-01-02T14:12:13.775Z,56.20
2018-01-02T14:14:40.208Z,59.03
2018-01-02T14:17:06.692Z,52.37
2018-01-02T14:19:33.466Z,55.50
2018-01-02T14:22:00.026Z,52.30
2018-01-02T14:24:26.535Z,53.63
2018-01-02T14:26:53.001Z,52.63
2018-01-02T14:29:19.401Z,54.77
2018-01-02T14:31:45.976Z,54.30
2018-01-02T14:34:12.420Z,55.87
2018-01-02T14:36:38.860Z,54.67
2018-01-02T14:39:05.339Z,57.87
2018-01-02T14:41:31.715Z,56.33
2018-01-02T14:43:58.132Z,60.17
2018-01-02T14:46:24.667Z,60.23
2018-01-02T14:48:51.225Z,72.03
2018-01-02T14:51:17.839Z,79.70
2018-01-02T14:53:44.339Z,81.13
2018-01-02T14:56:11.417Z,82.93
2018-01-02T14:58:37.960Z,84.67
2018-01-02T15:01:04.559Z,86.73
2018-01-02T15:03:30.933Z,88.80
2018-01-02T15:05:57.825Z,91.10
2018-01-02T15:08:24.383Z,96.00
2018-01-02T15:10:50.880Z,101.13
2018-01-02T15:13:17.275Z,105.63
2018-01-02T15:15:43.667Z,107.63
2018-01-02T15:18:10.132Z,119.90
2018-01-02T15:20:36.675Z,119.30
2018-01-02T15:23:03.307Z,119.50
2018-01-02T15:25:29.676Z,127.43
2018-01-02T15:27:56.203Z,137.53
2018-01-02T15:30:22.828Z,144.97
2018-01-02T15:32:49.391Z,142.93
2018-01-02T15:35:16.178Z,144.90
2018-01-02T15:37:43.357Z,140.63
2018-01-02T15:40:10.000Z,129.50
2018-01-02T15:42:36.454Z,153.37
2018-01-02T15:45:03.056Z,173.77
2018-01-02T15:47:29.455Z,187.40
2018-01-02T15:49:55.827Z,199.47
2018-01-02T15:52:22.271Z,194.77
2018-01-02T15:54:48.665Z,196.07
2018-01-02T15:57:15.075Z,221.97
2018-01-02T15:59:41.482Z,287.70
2018-01-02T16:02:07.843Z,321.93
2018-01-02T16:04:34.296Z,288.10
2018-01-02T16:07:00.743Z,295.87
2018-01-02T16:09:27.315Z,302.47
2018-01-02T16:11:53.801Z,304.27
2018-01-02T16:14:20.247Z,305.20
2018-01-02T16:16:46.607Z,311.47
2018-01-02T16:19:13.802Z,353.53
2018-01-02T16:21:40.192Z,352.77
2018-01-02T16:24:06.579Z,370.10
2018-01-02T16:26:33.082Z,392.97
2018-01-02T16:28:59.972Z,405.40
2018-01-02T16:31:26.393Z,362.27
2018-01-02T16:33:52.835Z,363.00
2018-01-02T16:38:57.511Z,344.77
2018-01-02T16:41:23.924Z,376.67
2018-01-02T16:43:50.368Z,381.17
2018-01-02T16:46:16.893Z,388.43
2018-01-02T16:48:43.300Z,389.43
2018-01-02T16:51:09.804Z,381.87
2018-01-02T16:53:36.376Z,382.37
2018-01-02T16:56:02.842Z,380.70
2018-01-02T16:58:29.686Z,376.37
2018-01-02T17:00:56.344Z,400.90
2018-01-02T17:03:22.766Z,399.50
2018-01-02T17:05:49.442Z,381.37
2018-01-02T17:08:16.904Z,274.63
2018-01-02T17:10:43.289Z,275.07
2018-01-02T17:13:09.686Z,258.70
2018-01-02T17:15:36.213Z,212.20
2018-01-02T17:18:02.640Z,122.37
2018-01-02T17:20:29.131Z,108.37
2018-01-02T17:22:55.679Z,108.57
2018-01-02T17:25:22.092Z,104.87
2018-01-02T17:27:48.632Z,114.43
2018-01-02T17:30:15.131Z,102.13
2018-01-02T17:32:41.543Z,96.53
2018-01-02T17:35:07.994Z,85.83
2018-01-02T17:37:34.464Z,83.20
2018-01-02T17:40:00.942Z,81.20
2018-01-02T17:42:28.135Z,84.90
2018-01-02T17:44:54.796Z,81.67
2018-01-02T17:47:21.446Z,80.37
2018-01-02T17:49:47.928Z,81.63
2018-01-02T17:52:15.548Z,81.30
2018-01-02T17:54:42.727Z,74.07
2018-01-02T17:57:09.104Z,71.73
2018-01-02T17:59:35.583Z,70.13
2018-01-02T18:02:02.119Z,70.73
2018-01-02T18:04:28.655Z,73.57
2018-01-02T18:06:55.238Z,73.90
2018-01-02T18:09:22.008Z,71.10
2018-01-02T18:11:48.428Z,63.17
2018-01-02T18:14:15.234Z,62.60
2018-01-02T18:16:41.644Z,59.03
2018-01-02T18:19:08.075Z,58.10
2018-01-02T18:21:34.619Z,54.40
2018-01-02T18:24:01.243Z,56.57
2018-01-02T18:26:27.835Z,57.97
2018-01-02T18:28:54.438Z,64.80
2018-01-02T18:31:20.903Z,70.70
2018-01-02T18:33:47.645Z,79.47
2018-01-02T18:36:14.191Z,70.60
2018-01-02T18:38:47.804Z,69.20
2018-01-02T18:41:15.901Z,66.90
2018-01-02T18:43:43.324Z,64.90
2018-01-02T18:46:11.584Z,66.90
2018-01-02T18:48:45.324Z,65.93
2018-01-02T18:51:13.089Z,62.37
2018-01-02T18:53:40.551Z,63.53
2018-01-02T18:56:07.088Z,63.77
2018-01-02T18:58:33.751Z,66.47
2018-01-02T19:01:00.480Z,68.77
2018-01-02T19:03:27.084Z,88.80
2018-01-02T19:05:53.528Z,96.37
2018-01-02T19:08:20.155Z,88.20
2018-01-02T19:10:46.776Z,87.80
2018-01-02T19:13:13.620Z,88.27
2018-01-02T19:15:41.175Z,88.07
2018-01-02T19:18:09.512Z,87.97
2018-01-02T19:20:36.400Z,98.87
2018-01-02T19:23:03.171Z,114.70
2018-01-02T19:25:29.729Z,136.00
2018-01-02T19:28:03.160Z,154.67
2018-01-02T19:30:30.275Z,160.80
2018-01-02T19:32:56.771Z,178.80
2018-01-02T19:35:23.278Z,185.83
2018-01-02T19:37:49.786Z,183.27
2018-01-02T19:40:16.483Z,173.33
2018-01-02T19:42:42.997Z,169.23
2018-01-02T19:45:10.835Z,159.37
2018-01-02T19:47:39.053Z,155.77
2018-01-02T19:50:08.843Z,155.30
2018-01-02T19:52:35.562Z,151.93
2018-01-02T19:55:02.060Z,152.77
2018-01-02T19:57:29.414Z,148.40
2018-01-02T19:59:56.075Z,142.43
2018-01-02T20:02:22.886Z,135.73
2018-01-02T20:04:49.407Z,127.00
2018-01-02T20:07:15.892Z,120.77
2018-01-02T20:09:42.354Z,115.23
2018-01-02T20:12:09.499Z,121.40
2018-01-02T20:14:35.955Z,119.50
2018-01-02T20:17:02.475Z,118.83
2018-01-02T20:19:28.980Z,128.80
2018-01-02T20:21:55.441Z,127.37
2018-01-02T20:24:21.900Z,133.90
2018-01-02T20:26:48.304Z,133.57
2018-01-02T20:29:14.827Z,134.47
2018-01-02T20:31:41.324Z,133.70
2018-01-02T20:34:07.733Z,134.47
2018-01-02T20:36:34.273Z,136.37
2018-01-02T20:39:00.764Z,141.17
2018-01-02T20:41:27.220Z,147.97
2018-01-02T20:43:54.703Z,146.80
2018-01-02T20:46:21.279Z,152.53
2018-01-02T20:48:47.702Z,156.87
2018-01-02T20:51:14.231Z,160.13
2018-01-02T20:53:40.668Z,159.97
2018-01-02T20:56:07.071Z,160.03
2018-01-02T20:58:33.548Z,163.50
2018-01-02T21:00:59.950Z,164.03
2018-01-02T21:03:26.666Z,158.80
2018-01-02T21:05:53.123Z,150.67
2018-01-02T21:08:19.514Z,157.43
2018-01-02T21:10:45.911Z,154.93
2018-01-02T21:13:12.458Z,154.43
2018-01-02T21:15:38.884Z,159.80
2018-01-02T21:18:05.220Z,149.50
2018-01-02T21:20:31.634Z,137.77
2018-01-02T21:22:58.040Z,136.80
2018-01-02T21:25:24.468Z,129.20
2018-01-02T21:27:50.948Z,120.03
2018-01-02T21:30:17.414Z,111.33
2018-01-02T21:32:43.819Z,98.73
2018-01-02T21:35:10.324Z,94.73
2018-01-02T21:37:36.691Z,80.77
2018-01-02T21:40:03.080Z,78.90
2018-01-02T21:42:29.554Z,81.07
2018-01-02T21:44:55.995Z,77.10
2018-01-02T21:47:22.384Z,78.03
2018-01-02T21:49:48.800Z,79.87
2018-01-02T21:52:15.252Z,80.47
2018-01-02T21:54:41.620Z,72.90
2018-01-02T21:57:08.055Z,71.77
2018-01-02T21:59:34.513Z,70.00
2018-01-02T22:02:00.904Z,68.07
2018-01-02T22:04:27.420Z,65.40
2018-01-02T22:06:53.796Z,65.30
2018-01-02T22:09:20.142Z,62.67
2018-01-02T22:11:46.552Z,64.17
2018-01-02T22:14:12.946Z,65.70
2018-01-02T22:16:39.299Z,65.33
2018-01-02T22:19:05.707Z,66.07
2018-01-02T22:21:32.104Z,65.47
2018-01-02T22:23:58.490Z,67.10
2018-01-02T22:26:25.072Z,68.07
2018-01-02T22:28:51.520Z,68.03
2018-01-02T22:31:17.875Z,66.33
2018-01-02T22:33:44.307Z,65.37
2018-01-02T22:36:10.915Z,63.20
2018-01-02T22:38:37.299Z,60.50
2018-01-02T22:41:03.726Z,60.33
2018-01-02T22:43:30.071Z,58.67
2018-01-02T22:45:56.414Z,56.47
2018-01-02T22:48:22.835Z,58.17
2018-01-02T22:50:49.279Z,56.37
2018-01-02T22:53:15.691Z,55.90
2018-01-02T22:55:42.193Z,55.47
2018-01-02T22:58:08.603Z,55.77
2018-01-02T23:00:35.087Z,59.87
2018-01-02T23:03:01.444Z,57.67
2018-01-02T23:05:27.839Z,59.47
2018-01-02T23:07:54.255Z,59.13
2018-01-02T23:10:20.724Z,58.40
2018-01-02T23:12:47.175Z,64.77
2018-01-02T23:15:13.514Z,64.90
2018-01-02T23:17:39.987Z,66.63
2018-01-02T23:20:06.647Z,68.70
2018-01-02T23:22:33.023Z,70.37
2018-01-02T23:24:59.423Z,70.27
2018-01-02T23:27:25.839Z,69.67
2018-01-02T23:29:52.190Z,68.47
2018-01-02T23:32:18.669Z,65.37
2018-01-02T23:34:45.079Z,69.07
2018-01-02T23:37:11.467Z,67.93
2018-01-02T23:39:37.913Z,69.63
2018-01-02T23:42:04.335Z,69.57
2018-01-02T23:44:30.763Z,70.00
2018-01-02T23:46:57.171Z,67.60
2018-01-02T23:49:23.523Z,68.43
2018-01-02T23:51:49.915Z,71.10
2018-01-02T23:54:16.384Z,72.30
2018-01-02T23:56:42.825Z,66.47
2018-01-02T23:59:09.215Z,65.37
